sensor_id;sensor_type;location;lat;lon;timestamp;temperature;humidity
1381;DHT22;684;48.342;10.096;2022-09-17T00:02:14;13.00;34.20
1381;DHT22;684;48.342;10.096;2022-09-17T00:04:40;12.90;34.20
1381;DHT22;684;48.342;10.096;2022-09-17T00:07:07;12.90;34.20
1381;DHT22;684;48.342;10.096;2022-09-17T00:09:34;12.90;34.30
1381;DHT22;684;48.342;10.096;2022-09-17T00:12:01;12.80;34.20
1381;DHT22;684;48.342;10.096;2022-09-17T00:14:28;12.80;34.00
1381;DHT22;684;48.342;10.096;2022-09-17T00:16:54;12.70;33.80
1381;DHT22;684;48.342;10.096;2022-09-17T00:19:23;12.70;33.20
1381;DHT22;684;48.342;10.096;2022-09-17T00:21:50;12.70;32.90
1381;DHT22;684;48.342;10.096;2022-09-17T00:24:18;12.70;32.40
1381;DHT22;684;48.342;10.096;2022-09-17T00:26:45;12.70;32.30
1381;DHT22;684;48.342;10.096;2022-09-17T00:29:12;12.70;32.10
1381;DHT22;684;48.342;10.096;2022-09-17T00:31:39;12.70;32.10
1381;DHT22;684;48.342;10.096;2022-09-17T00:34:07;12.70;31.90
1381;DHT22;684;48.342;10.096;2022-09-17T00:36:36;12.70;31.80
1381;DHT22;684;48.342;10.096;2022-09-17T00:39:04;12.70;31.80
1381;DHT22;684;48.342;10.096;2022-09-17T00:41:33;12.60;31.80
1381;DHT22;684;48.342;10.096;2022-09-17T00:44:36;12.60;31.60
1381;DHT22;684;48.342;10.096;2022-09-17T00:46:48;12.70;31.70
1381;DHT22;684;48.342;10.096;2022-09-17T00:49:19;12.60;31.50
1381;DHT22;684;48.342;10.096;2022-09-17T00:51:53;12.70;31.20
1381;DHT22;684;48.342;10.096;2022-09-17T00:54:22;12.60;31.40
1381;DHT22;684;48.342;10.096;2022-09-17T00:56:51;12.60;31.70
1381;DHT22;684;48.342;10.096;2022-09-17T00:59:18;12.70;31.40
1381;DHT22;684;48.342;10.096;2022-09-17T01:01:47;12.70;31.30
1381;DHT22;684;48.342;10.096;2022-09-17T01:04:15;12.70;31.60
1381;DHT22;684;48.342;10.096;2022-09-17T01:06:49;12.70;32.00
1381;DHT22;684;48.342;10.096;2022-09-17T01:09:29;12.70;31.80
1381;DHT22;684;48.342;10.096;2022-09-17T01:12:07;12.70;31.50
1381;DHT22;684;48.342;10.096;2022-09-17T01:14:48;12.60;31.10
1381;DHT22;684;48.342;10.096;2022-09-17T01:17:25;12.60;30.50
1381;DHT22;684;48.342;10.096;2022-09-17T01:20:31;12.60;30.20
1381;DHT22;684;48.342;10.096;2022-09-17T01:23:22;12.60;30.50
1381;DHT22;684;48.342;10.096;2022-09-17T01:26:05;12.60;30.10
1381;DHT22;684;48.342;10.096;2022-09-17T01:28:41;12.50;30.30
1381;DHT22;684;48.342;10.096;2022-09-17T01:31:32;12.50;30.30
1381;DHT22;684;48.342;10.096;2022-09-17T01:34:09;12.50;30.70
1381;DHT22;684;48.342;10.096;2022-09-17T01:36:46;12.50;30.70
1381;DHT22;684;48.342;10.096;2022-09-17T01:39:25;12.50;30.50
1381;DHT22;684;48.342;10.096;2022-09-17T01:42:01;12.50;30.60
1381;DHT22;684;48.342;10.096;2022-09-17T01:44:34;12.50;30.20
1381;DHT22;684;48.342;10.096;2022-09-17T01:47:07;12.40;30.70
1381;DHT22;684;48.342;10.096;2022-09-17T01:49:36;12.40;31.20
1381;DHT22;684;48.342;10.096;2022-09-17T01:52:06;12.40;31.20
1381;DHT22;684;48.342;10.096;2022-09-17T01:54:36;12.40;31.30
1381;DHT22;684;48.342;10.096;2022-09-17T01:57:10;12.40;31.50
1381;DHT22;684;48.342;10.096;2022-09-17T01:59:41;12.40;31.50
1381;DHT22;684;48.342;10.096;2022-09-17T02:02:14;12.40;31.50
1381;DHT22;684;48.342;10.096;2022-09-17T02:04:45;12.40;31.50
1381;DHT22;684;48.342;10.096;2022-09-17T02:07:18;12.40;31.10
1381;DHT22;684;48.342;10.096;2022-09-17T02:09:50;12.40;30.60
1381;DHT22;684;48.342;10.096;2022-09-17T02:12:22;12.40;30.40
1381;DHT22;684;48.342;10.096;2022-09-17T02:14:53;12.30;30.60
1381;DHT22;684;48.342;10.096;2022-09-17T02:17:28;12.30;30.50
1381;DHT22;684;48.342;10.096;2022-09-17T02:19:57;12.30;31.00
1381;DHT22;684;48.342;10.096;2022-09-17T02:22:27;12.30;31.10
1381;DHT22;684;48.342;10.096;2022-09-17T02:25:01;12.20;31.50
1381;DHT22;684;48.342;10.096;2022-09-17T02:27:36;12.30;31.10
1381;DHT22;684;48.342;10.096;2022-09-17T02:30:08;12.30;30.90
1381;DHT22;684;48.342;10.096;2022-09-17T02:32:36;12.20;30.70
1381;DHT22;684;48.342;10.096;2022-09-17T02:35:04;12.20;30.70
1381;DHT22;684;48.342;10.096;2022-09-17T02:37:32;12.20;30.70
1381;DHT22;684;48.342;10.096;2022-09-17T02:40:00;12.20;30.60
1381;DHT22;684;48.342;10.096;2022-09-17T02:42:30;12.20;30.40
1381;DHT22;684;48.342;10.096;2022-09-17T02:45:05;12.20;30.50
1381;DHT22;684;48.342;10.096;2022-09-17T02:50:50;12.10;30.90
1381;DHT22;684;48.342;10.096;2022-09-17T02:53:34;12.10;31.10
1381;DHT22;684;48.342;10.096;2022-09-17T02:56:11;12.00;31.40
1381;DHT22;684;48.342;10.096;2022-09-17T02:58:44;12.00;31.50
1381;DHT22;684;48.342;10.096;2022-09-17T03:01:18;12.00;31.70
1381;DHT22;684;48.342;10.096;2022-09-17T03:03:49;12.00;31.40
1381;DHT22;684;48.342;10.096;2022-09-17T03:06:17;12.00;31.20
1381;DHT22;684;48.342;10.096;2022-09-17T03:08:45;12.00;31.30
1381;DHT22;684;48.342;10.096;2022-09-17T03:11:12;12.00;31.40
1381;DHT22;684;48.342;10.096;2022-09-17T03:13:39;12.00;31.30
1381;DHT22;684;48.342;10.096;2022-09-17T03:16:07;12.00;31.30
1381;DHT22;684;48.342;10.096;2022-09-17T03:18:34;11.90;31.10
1381;DHT22;684;48.342;10.096;2022-09-17T03:21:02;11.90;31.30
1381;DHT22;684;48.342;10.096;2022-09-17T03:23:29;11.90;31.40
1381;DHT22;684;48.342;10.096;2022-09-17T03:25:56;11.90;31.40
1381;DHT22;684;48.342;10.096;2022-09-17T03:28:23;11.80;31.30
1381;DHT22;684;48.342;10.096;2022-09-17T03:30:50;11.80;31.50
1381;DHT22;684;48.342;10.096;2022-09-17T03:33:17;11.80;31.90
1381;DHT22;684;48.342;10.096;2022-09-17T03:35:45;11.80;32.10
1381;DHT22;684;48.342;10.096;2022-09-17T03:38:13;11.90;32.50
1381;DHT22;684;48.342;10.096;2022-09-17T03:40:40;11.90;32.60
1381;DHT22;684;48.342;10.096;2022-09-17T03:43:07;11.90;32.40
1381;DHT22;684;48.342;10.096;2022-09-17T03:45:34;11.90;32.10
1381;DHT22;684;48.342;10.096;2022-09-17T03:48:01;11.90;31.60
1381;DHT22;684;48.342;10.096;2022-09-17T03:50:28;11.90;32.00
1381;DHT22;684;48.342;10.096;2022-09-17T03:52:54;11.90;32.00
1381;DHT22;684;48.342;10.096;2022-09-17T03:55:23;11.90;32.00
1381;DHT22;684;48.342;10.096;2022-09-17T03:57:49;11.90;32.00
1381;DHT22;684;48.342;10.096;2022-09-17T04:00:16;11.90;32.20
1381;DHT22;684;48.342;10.096;2022-09-17T04:02:43;11.90;32.20
1381;DHT22;684;48.342;10.096;2022-09-17T04:05:10;11.90;31.60
1381;DHT22;684;48.342;10.096;2022-09-17T04:07:38;11.90;31.50
1381;DHT22;684;48.342;10.096;2022-09-17T04:10:06;11.90;31.40
1381;DHT22;684;48.342;10.096;2022-09-17T04:12:35;11.90;31.30
1381;DHT22;684;48.342;10.096;2022-09-17T04:15:01;11.90;31.50
1381;DHT22;684;48.342;10.096;2022-09-17T04:17:28;11.90;31.10
1381;DHT22;684;48.342;10.096;2022-09-17T04:19:55;11.80;31.30
1381;DHT22;684;48.342;10.096;2022-09-17T04:22:22;11.80;31.80
1381;DHT22;684;48.342;10.096;2022-09-17T04:24:49;11.80;32.30
1381;DHT22;684;48.342;10.096;2022-09-17T04:27:16;11.80;32.70
1381;DHT22;684;48.342;10.096;2022-09-17T04:29:44;11.70;33.00
1381;DHT22;684;48.342;10.096;2022-09-17T04:32:11;11.70;33.30
1381;DHT22;684;48.342;10.096;2022-09-17T04:34:38;11.70;33.30
1381;DHT22;684;48.342;10.096;2022-09-17T04:37:04;11.70;33.50
1381;DHT22;684;48.342;10.096;2022-09-17T04:39:31;11.70;33.30
1381;DHT22;684;48.342;10.096;2022-09-17T04:41:58;11.60;33.40
1381;DHT22;684;48.342;10.096;2022-09-17T04:44:24;11.60;33.60
1381;DHT22;684;48.342;10.096;2022-09-17T04:46:53;11.60;33.60
1381;DHT22;684;48.342;10.096;2022-09-17T04:49:20;11.50;33.90
1381;DHT22;684;48.342;10.096;2022-09-17T04:51:46;11.50;34.00
1381;DHT22;684;48.342;10.096;2022-09-17T04:54:13;11.40;34.10
1381;DHT22;684;48.342;10.096;2022-09-17T04:56:40;11.40;34.30
1381;DHT22;684;48.342;10.096;2022-09-17T04:59:07;11.40;34.60
1381;DHT22;684;48.342;10.096;2022-09-17T05:01:33;11.40;34.80
1381;DHT22;684;48.342;10.096;2022-09-17T05:04:02;11.40;34.80
1381;DHT22;684;48.342;10.096;2022-09-17T05:06:28;11.40;34.90
1381;DHT22;684;48.342;10.096;2022-09-17T05:08:55;11.40;35.00
1381;DHT22;684;48.342;10.096;2022-09-17T05:11:22;11.40;34.90
1381;DHT22;684;48.342;10.096;2022-09-17T05:13:48;11.40;34.90
1381;DHT22;684;48.342;10.096;2022-09-17T05:16:15;11.40;34.80
1381;DHT22;684;48.342;10.096;2022-09-17T05:18:42;11.40;34.60
1381;DHT22;684;48.342;10.096;2022-09-17T05:21:10;11.40;34.40
1381;DHT22;684;48.342;10.096;2022-09-17T05:23:37;11.30;34.20
1381;DHT22;684;48.342;10.096;2022-09-17T05:26:04;11.30;34.20
1381;DHT22;684;48.342;10.096;2022-09-17T05:28:30;11.30;34.10
1381;DHT22;684;48.342;10.096;2022-09-17T05:30:58;11.30;34.10
1381;DHT22;684;48.342;10.096;2022-09-17T05:33:24;11.40;33.90
1381;DHT22;684;48.342;10.096;2022-09-17T05:35:51;11.60;33.80
1381;DHT22;684;48.342;10.096;2022-09-17T05:38:20;11.80;33.10
1381;DHT22;684;48.342;10.096;2022-09-17T05:40:46;12.10;32.60
1381;DHT22;684;48.342;10.096;2022-09-17T05:43:14;12.40;31.90
1381;DHT22;684;48.342;10.096;2022-09-17T05:45:41;12.60;31.10
1381;DHT22;684;48.342;10.096;2022-09-17T05:48:11;12.60;30.30
1381;DHT22;684;48.342;10.096;2022-09-17T05:50:38;12.50;30.40
1381;DHT22;684;48.342;10.096;2022-09-17T05:53:07;12.50;30.50
1381;DHT22;684;48.342;10.096;2022-09-17T05:55:35;12.40;30.70
1381;DHT22;684;48.342;10.096;2022-09-17T05:58:08;12.40;30.50
1381;DHT22;684;48.342;10.096;2022-09-17T06:00:35;12.30;30.80
1381;DHT22;684;48.342;10.096;2022-09-17T06:03:02;12.30;31.00
1381;DHT22;684;48.342;10.096;2022-09-17T06:05:29;12.30;31.10
1381;DHT22;684;48.342;10.096;2022-09-17T06:07:56;12.40;31.00
1381;DHT22;684;48.342;10.096;2022-09-17T06:10:23;12.40;31.00
1381;DHT22;684;48.342;10.096;2022-09-17T06:12:55;12.40;31.30
1381;DHT22;684;48.342;10.096;2022-09-17T06:15:22;12.30;31.40
1381;DHT22;684;48.342;10.096;2022-09-17T06:17:49;12.40;31.80
1381;DHT22;684;48.342;10.096;2022-09-17T06:20:16;12.40;32.00
1381;DHT22;684;48.342;10.096;2022-09-17T06:22:42;12.50;32.00
1381;DHT22;684;48.342;10.096;2022-09-17T06:25:09;12.50;31.80
1381;DHT22;684;48.342;10.096;2022-09-17T06:27:36;12.60;31.60
1381;DHT22;684;48.342;10.096;2022-09-17T06:30:05;12.60;31.30
1381;DHT22;684;48.342;10.096;2022-09-17T06:32:32;12.70;30.60
1381;DHT22;684;48.342;10.096;2022-09-17T06:34:59;12.70;30.60
1381;DHT22;684;48.342;10.096;2022-09-17T06:37:29;12.70;30.60
1381;DHT22;684;48.342;10.096;2022-09-17T06:39:56;12.70;31.20
1381;DHT22;684;48.342;10.096;2022-09-17T06:42:24;12.80;31.20
1381;DHT22;684;48.342;10.096;2022-09-17T06:44:50;13.10;31.20
1381;DHT22;684;48.342;10.096;2022-09-17T06:47:19;13.30;30.40
1381;DHT22;684;48.342;10.096;2022-09-17T06:49:45;13.40;29.20
1381;DHT22;684;48.342;10.096;2022-09-17T06:52:12;13.30;29.50
1381;DHT22;684;48.342;10.096;2022-09-17T06:54:39;13.30;29.50
1381;DHT22;684;48.342;10.096;2022-09-17T06:57:05;13.20;29.50
1381;DHT22;684;48.342;10.096;2022-09-17T06:59:32;13.20;29.70
1381;DHT22;684;48.342;10.096;2022-09-17T07:01:59;13.20;29.80
1381;DHT22;684;48.342;10.096;2022-09-17T07:04:27;13.40;29.60
1381;DHT22;684;48.342;10.096;2022-09-17T07:06:54;13.60;29.30
1381;DHT22;684;48.342;10.096;2022-09-17T07:09:20;13.80;28.80
1381;DHT22;684;48.342;10.096;2022-09-17T07:11:47;14.00;28.20
1381;DHT22;684;48.342;10.096;2022-09-17T07:14:14;14.30;27.30
1381;DHT22;684;48.342;10.096;2022-09-17T07:16:41;14.60;26.60
1381;DHT22;684;48.342;10.096;2022-09-17T07:19:08;14.70;25.10
1381;DHT22;684;48.342;10.096;2022-09-17T07:21:36;14.60;24.90
1381;DHT22;684;48.342;10.096;2022-09-17T07:24:03;14.40;25.30
1381;DHT22;684;48.342;10.096;2022-09-17T07:26:29;14.30;25.10
1381;DHT22;684;48.342;10.096;2022-09-17T07:28:56;14.20;25.00
1381;DHT22;684;48.342;10.096;2022-09-17T07:31:23;14.00;25.30
1381;DHT22;684;48.342;10.096;2022-09-17T07:33:50;13.80;25.70
1381;DHT22;684;48.342;10.096;2022-09-17T07:36:17;13.80;26.10
1381;DHT22;684;48.342;10.096;2022-09-17T07:38:45;13.80;26.10
1381;DHT22;684;48.342;10.096;2022-09-17T07:41:14;13.90;25.90
1381;DHT22;684;48.342;10.096;2022-09-17T07:43:42;13.90;25.80
1381;DHT22;684;48.342;10.096;2022-09-17T07:46:12;14.00;24.90
1381;DHT22;684;48.342;10.096;2022-09-17T07:48:39;14.00;25.10
1381;DHT22;684;48.342;10.096;2022-09-17T07:51:06;13.90;24.80
1381;DHT22;684;48.342;10.096;2022-09-17T07:53:33;13.90;24.90
1381;DHT22;684;48.342;10.096;2022-09-17T07:56:01;13.80;25.50
1381;DHT22;684;48.342;10.096;2022-09-17T07:58:29;13.90;25.90
1381;DHT22;684;48.342;10.096;2022-09-17T08:00:59;13.90;25.90
1381;DHT22;684;48.342;10.096;2022-09-17T08:03:27;13.90;25.80
1381;DHT22;684;48.342;10.096;2022-09-17T08:06:00;14.00;24.80
1381;DHT22;684;48.342;10.096;2022-09-17T08:08:29;14.20;24.70
1381;DHT22;684;48.342;10.096;2022-09-17T08:11:00;14.20;24.80
1381;DHT22;684;48.342;10.096;2022-09-17T08:13:27;14.10;23.40
1381;DHT22;684;48.342;10.096;2022-09-17T08:15:57;14.00;23.30
1381;DHT22;684;48.342;10.096;2022-09-17T08:18:24;13.80;24.00
1381;DHT22;684;48.342;10.096;2022-09-17T08:20:54;13.80;24.70
1381;DHT22;684;48.342;10.096;2022-09-17T08:23:21;13.70;24.50
1381;DHT22;684;48.342;10.096;2022-09-17T08:25:51;13.70;24.00
1381;DHT22;684;48.342;10.096;2022-09-17T08:28:19;13.60;24.30
1381;DHT22;684;48.342;10.096;2022-09-17T08:30:47;13.60;24.30
1381;DHT22;684;48.342;10.096;2022-09-17T08:33:14;13.60;24.40
1381;DHT22;684;48.342;10.096;2022-09-17T08:35:41;13.50;24.50
1381;DHT22;684;48.342;10.096;2022-09-17T08:38:08;13.70;24.40
1381;DHT22;684;48.342;10.096;2022-09-17T08:40:40;14.00;23.50
1381;DHT22;684;48.342;10.096;2022-09-17T08:43:11;14.30;23.30
1381;DHT22;684;48.342;10.096;2022-09-17T08:45:42;14.80;23.00
1381;DHT22;684;48.342;10.096;2022-09-17T08:48:12;15.10;21.10
1381;DHT22;684;48.342;10.096;2022-09-17T08:50:40;15.20;20.50
1381;DHT22;684;48.342;10.096;2022-09-17T08:53:28;15.10;19.90
1381;DHT22;684;48.342;10.096;2022-09-17T08:56:00;15.10;19.80
1381;DHT22;684;48.342;10.096;2022-09-17T09:01:31;14.70;20.50
1381;DHT22;684;48.342;10.096;2022-09-17T09:07:01;14.50;21.30
1381;DHT22;684;48.342;10.096;2022-09-17T09:09:34;14.30;21.00
1381;DHT22;684;48.342;10.096;2022-09-17T09:12:04;14.10;21.70
1381;DHT22;684;48.342;10.096;2022-09-17T09:14:36;14.00;23.10
1381;DHT22;684;48.342;10.096;2022-09-17T09:17:08;13.80;24.30
1381;DHT22;684;48.342;10.096;2022-09-17T09:19:41;13.70;25.20
1381;DHT22;684;48.342;10.096;2022-09-17T09:22:21;13.70;25.80
1381;DHT22;684;48.342;10.096;2022-09-17T09:25:01;13.70;26.20
1381;DHT22;684;48.342;10.096;2022-09-17T09:27:34;13.60;25.70
1381;DHT22;684;48.342;10.096;2022-09-17T09:30:04;13.60;26.00
1381;DHT22;684;48.342;10.096;2022-09-17T09:32:49;13.50;25.90
1381;DHT22;684;48.342;10.096;2022-09-17T09:35:18;13.50;26.10
1381;DHT22;684;48.342;10.096;2022-09-17T09:37:52;13.50;25.60
1381;DHT22;684;48.342;10.096;2022-09-17T09:40:32;13.40;28.10
1381;DHT22;684;48.342;10.096;2022-09-17T09:43:03;13.30;27.50
1381;DHT22;684;48.342;10.096;2022-09-17T09:45:45;13.30;27.50
1381;DHT22;684;48.342;10.096;2022-09-17T09:48:21;13.20;27.90
1381;DHT22;684;48.342;10.096;2022-09-17T09:51:00;13.20;27.90
1381;DHT22;684;48.342;10.096;2022-09-17T09:53:35;13.20;28.80
1381;DHT22;684;48.342;10.096;2022-09-17T09:56:24;13.30;28.80
1381;DHT22;684;48.342;10.096;2022-09-17T09:58:53;13.50;29.00
1381;DHT22;684;48.342;10.096;2022-09-17T10:01:20;13.80;28.40
1381;DHT22;684;48.342;10.096;2022-09-17T10:03:50;14.00;28.10
1381;DHT22;684;48.342;10.096;2022-09-17T10:06:18;14.00;28.20
1381;DHT22;684;48.342;10.096;2022-09-17T10:09:10;14.00;28.60
1381;DHT22;684;48.342;10.096;2022-09-17T10:11:37;13.90;28.30
1381;DHT22;684;48.342;10.096;2022-09-17T10:14:22;13.90;27.90
1381;DHT22;684;48.342;10.096;2022-09-17T10:17:10;13.80;28.40
1381;DHT22;684;48.342;10.096;2022-09-17T10:19:38;13.70;28.80
1381;DHT22;684;48.342;10.096;2022-09-17T10:22:18;13.60;29.40
1381;DHT22;684;48.342;10.096;2022-09-17T10:24:50;13.60;30.00
1381;DHT22;684;48.342;10.096;2022-09-17T10:27:18;13.60;30.30
1381;DHT22;684;48.342;10.096;2022-09-17T10:29:48;13.70;30.70
1381;DHT22;684;48.342;10.096;2022-09-17T10:32:17;13.90;30.20
1381;DHT22;684;48.342;10.096;2022-09-17T10:34:58;14.10;29.80
1381;DHT22;684;48.342;10.096;2022-09-17T10:37:33;14.30;28.60
1381;DHT22;684;48.342;10.096;2022-09-17T10:40:01;14.30;27.80
1381;DHT22;684;48.342;10.096;2022-09-17T10:42:37;14.30;28.00
1381;DHT22;684;48.342;10.096;2022-09-17T10:45:10;14.50;27.60
1381;DHT22;684;48.342;10.096;2022-09-17T10:47:49;14.70;27.50
1381;DHT22;684;48.342;10.096;2022-09-17T10:50:27;15.10;27.00
1381;DHT22;684;48.342;10.096;2022-09-17T10:52:57;16.60;23.20
1381;DHT22;684;48.342;10.096;2022-09-17T10:55:27;17.50;20.40
1381;DHT22;684;48.342;10.096;2022-09-17T10:58:17;18.90;19.80
1381;DHT22;684;48.342;10.096;2022-09-17T11:01:00;20.30;15.50
1381;DHT22;684;48.342;10.096;2022-09-17T11:03:47;20.70;12.40
1381;DHT22;684;48.342;10.096;2022-09-17T11:09:40;19.10;13.30
1381;DHT22;684;48.342;10.096;2022-09-17T11:12:24;18.30;14.90
1381;DHT22;684;48.342;10.096;2022-09-17T11:15:00;17.60;16.70
1381;DHT22;684;48.342;10.096;2022-09-17T11:17:44;17.10;17.80
1381;DHT22;684;48.342;10.096;2022-09-17T11:20:21;16.90;19.30
1381;DHT22;684;48.342;10.096;2022-09-17T11:22:56;16.90;19.90
1381;DHT22;684;48.342;10.096;2022-09-17T11:25:37;16.70;20.00
1381;DHT22;684;48.342;10.096;2022-09-17T11:28:22;16.60;19.60
1381;DHT22;684;48.342;10.096;2022-09-17T11:30:59;16.40;19.70
1381;DHT22;684;48.342;10.096;2022-09-17T11:33:42;16.30;20.00
1381;DHT22;684;48.342;10.096;2022-09-17T11:36:17;16.30;19.20
1381;DHT22;684;48.342;10.096;2022-09-17T11:38:48;16.10;19.10
1381;DHT22;684;48.342;10.096;2022-09-17T11:41:19;15.90;19.50
1381;DHT22;684;48.342;10.096;2022-09-17T11:43:56;15.70;20.30
1381;DHT22;684;48.342;10.096;2022-09-17T11:46:28;15.40;21.50
1381;DHT22;684;48.342;10.096;2022-09-17T11:48:59;15.30;22.20
1381;DHT22;684;48.342;10.096;2022-09-17T11:51:31;15.10;22.70
1381;DHT22;684;48.342;10.096;2022-09-17T11:54:04;14.90;23.40
1381;DHT22;684;48.342;10.096;2022-09-17T11:56:37;14.70;23.80
1381;DHT22;684;48.342;10.096;2022-09-17T11:59:14;14.50;25.20
1381;DHT22;684;48.342;10.096;2022-09-17T12:01:48;14.40;25.60
1381;DHT22;684;48.342;10.096;2022-09-17T12:04:37;14.30;26.30
1381;DHT22;684;48.342;10.096;2022-09-17T12:07:18;14.50;29.30
1381;DHT22;684;48.342;10.096;2022-09-17T12:09:52;14.80;28.20
1381;DHT22;684;48.342;10.096;2022-09-17T12:12:23;15.00;26.90
1381;DHT22;684;48.342;10.096;2022-09-17T12:14:54;15.10;24.90
1381;DHT22;684;48.342;10.096;2022-09-17T12:17:28;15.00;23.60
1381;DHT22;684;48.342;10.096;2022-09-17T12:20:00;14.80;23.10
1381;DHT22;684;48.342;10.096;2022-09-17T12:22:32;14.60;23.70
1381;DHT22;684;48.342;10.096;2022-09-17T12:25:01;14.60;25.60
1381;DHT22;684;48.342;10.096;2022-09-17T12:27:34;14.60;26.20
1381;DHT22;684;48.342;10.096;2022-09-17T12:30:09;14.60;26.80
1381;DHT22;684;48.342;10.096;2022-09-17T12:35:50;14.60;26.30
1381;DHT22;684;48.342;10.096;2022-09-17T12:38:30;14.60;25.80
1381;DHT22;684;48.342;10.096;2022-09-17T12:41:06;14.60;26.50
1381;DHT22;684;48.342;10.096;2022-09-17T12:43:55;14.60;26.80
1381;DHT22;684;48.342;10.096;2022-09-17T12:46:36;14.80;26.40
1381;DHT22;684;48.342;10.096;2022-09-17T12:49:20;15.10;25.20
1381;DHT22;684;48.342;10.096;2022-09-17T12:51:55;15.40;23.40
1381;DHT22;684;48.342;10.096;2022-09-17T12:54:37;15.60;22.70
1381;DHT22;684;48.342;10.096;2022-09-17T12:57:16;15.80;22.10
1381;DHT22;684;48.342;10.096;2022-09-17T12:59:50;16.00;21.80
1381;DHT22;684;48.342;10.096;2022-09-17T13:02:23;16.20;22.00
1381;DHT22;684;48.342;10.096;2022-09-17T13:05:14;16.40;21.20
1381;DHT22;684;48.342;10.096;2022-09-17T13:08:20;16.50;21.30
1381;DHT22;684;48.342;10.096;2022-09-17T13:13:56;16.30;18.10
1381;DHT22;684;48.342;10.096;2022-09-17T13:16:33;16.10;18.70
1381;DHT22;684;48.342;10.096;2022-09-17T13:19:05;15.90;18.80
1381;DHT22;684;48.342;10.096;2022-09-17T13:21:41;15.80;19.20
1381;DHT22;684;48.342;10.096;2022-09-17T13:24:17;15.60;18.90
1381;DHT22;684;48.342;10.096;2022-09-17T13:26:45;15.50;18.40
1381;DHT22;684;48.342;10.096;2022-09-17T13:29:12;15.50;18.40
1381;DHT22;684;48.342;10.096;2022-09-17T13:32:00;15.50;18.00
1381;DHT22;684;48.342;10.096;2022-09-17T13:34:29;15.50;17.70
1381;DHT22;684;48.342;10.096;2022-09-17T13:36:58;15.50;17.30
1381;DHT22;684;48.342;10.096;2022-09-17T13:39:41;15.60;18.70
1381;DHT22;684;48.342;10.096;2022-09-17T13:42:13;15.60;18.00
1381;DHT22;684;48.342;10.096;2022-09-17T13:44:43;15.60;18.00
1381;DHT22;684;48.342;10.096;2022-09-17T13:47:24;15.50;18.70
1381;DHT22;684;48.342;10.096;2022-09-17T13:49:56;15.40;18.80
1381;DHT22;684;48.342;10.096;2022-09-17T13:52:37;15.30;19.20
1381;DHT22;684;48.342;10.096;2022-09-17T13:55:07;15.20;19.40
1381;DHT22;684;48.342;10.096;2022-09-17T13:57:45;15.00;19.90
1381;DHT22;684;48.342;10.096;2022-09-17T14:00:52;14.90;20.70
1381;DHT22;684;48.342;10.096;2022-09-17T14:03:52;14.90;21.80
1381;DHT22;684;48.342;10.096;2022-09-17T14:06:44;15.00;22.00
1381;DHT22;684;48.342;10.096;2022-09-17T14:09:31;15.00;20.50
1381;DHT22;684;48.342;10.096;2022-09-17T14:11:58;14.90;20.80
1381;DHT22;684;48.342;10.096;2022-09-17T14:14:47;14.70;22.20
1381;DHT22;684;48.342;10.096;2022-09-17T14:17:49;14.50;22.80
1381;DHT22;684;48.342;10.096;2022-09-17T14:20:19;14.30;24.40
1381;DHT22;684;48.342;10.096;2022-09-17T14:22:54;14.20;25.20
1381;DHT22;684;48.342;10.096;2022-09-17T14:25:26;14.20;25.60
1381;DHT22;684;48.342;10.096;2022-09-17T14:27:56;14.20;25.50
1381;DHT22;684;48.342;10.096;2022-09-17T14:30:25;14.10;25.60
1381;DHT22;684;48.342;10.096;2022-09-17T14:33:02;14.10;25.60
1381;DHT22;684;48.342;10.096;2022-09-17T14:35:34;14.00;26.60
1381;DHT22;684;48.342;10.096;2022-09-17T14:38:08;14.00;26.70
1381;DHT22;684;48.342;10.096;2022-09-17T14:40:42;13.90;26.50
1381;DHT22;684;48.342;10.096;2022-09-17T14:43:16;13.80;26.30
1381;DHT22;684;48.342;10.096;2022-09-17T14:45:48;13.70;25.90
1381;DHT22;684;48.342;10.096;2022-09-17T14:48:22;13.50;25.20
1381;DHT22;684;48.342;10.096;2022-09-17T14:51:15;13.30;24.60
1381;DHT22;684;48.342;10.096;2022-09-17T14:53:43;13.10;26.20
1381;DHT22;684;48.342;10.096;2022-09-17T14:56:13;13.00;27.60
1381;DHT22;684;48.342;10.096;2022-09-17T14:58:46;12.80;27.90
1381;DHT22;684;48.342;10.096;2022-09-17T15:01:21;12.70;28.40
1381;DHT22;684;48.342;10.096;2022-09-17T15:03:49;12.60;28.10
1381;DHT22;684;48.342;10.096;2022-09-17T15:06:22;12.60;28.30
1381;DHT22;684;48.342;10.096;2022-09-17T15:08:49;12.60;27.40
1381;DHT22;684;48.342;10.096;2022-09-17T15:11:16;12.60;27.70
1381;DHT22;684;48.342;10.096;2022-09-17T15:13:48;12.60;28.00
1381;DHT22;684;48.342;10.096;2022-09-17T15:16:19;12.60;28.00
1381;DHT22;684;48.342;10.096;2022-09-17T15:18:50;12.70;28.00
1381;DHT22;684;48.342;10.096;2022-09-17T15:21:27;12.80;27.30
1381;DHT22;684;48.342;10.096;2022-09-17T15:23:57;12.80;26.60
1381;DHT22;684;48.342;10.096;2022-09-17T15:26:28;12.90;27.00
1381;DHT22;684;48.342;10.096;2022-09-17T15:28:56;12.90;26.80
1381;DHT22;684;48.342;10.096;2022-09-17T15:31:23;13.00;26.50
1381;DHT22;684;48.342;10.096;2022-09-17T15:33:53;12.90;26.60
1381;DHT22;684;48.342;10.096;2022-09-17T15:36:23;12.90;26.60
1381;DHT22;684;48.342;10.096;2022-09-17T15:38:52;13.00;27.10
1381;DHT22;684;48.342;10.096;2022-09-17T15:41:29;13.00;27.30
1381;DHT22;684;48.342;10.096;2022-09-17T15:44:21;13.00;27.30
1381;DHT22;684;48.342;10.096;2022-09-17T15:46:49;12.90;28.20
1381;DHT22;684;48.342;10.096;2022-09-17T15:49:30;12.90;28.40
1381;DHT22;684;48.342;10.096;2022-09-17T15:52:19;12.80;28.50
1381;DHT22;684;48.342;10.096;2022-09-17T15:54:50;12.70;28.20
1381;DHT22;684;48.342;10.096;2022-09-17T15:57:17;12.60;28.50
1381;DHT22;684;48.342;10.096;2022-09-17T15:59:47;12.50;28.90
1381;DHT22;684;48.342;10.096;2022-09-17T16:02:25;12.50;29.30
1381;DHT22;684;48.342;10.096;2022-09-17T16:10:56;12.50;30.50
1381;DHT22;684;48.342;10.096;2022-09-17T16:13:23;12.50;30.50
1381;DHT22;684;48.342;10.096;2022-09-17T16:15:49;12.60;30.30
1381;DHT22;684;48.342;10.096;2022-09-17T16:18:16;12.50;30.50
1381;DHT22;684;48.342;10.096;2022-09-17T16:20:43;12.50;30.70
1381;DHT22;684;48.342;10.096;2022-09-17T16:23:10;12.50;31.00
1381;DHT22;684;48.342;10.096;2022-09-17T16:25:37;12.50;31.20
1381;DHT22;684;48.342;10.096;2022-09-17T16:28:14;12.50;30.80
1381;DHT22;684;48.342;10.096;2022-09-17T16:30:44;12.40;30.90
1381;DHT22;684;48.342;10.096;2022-09-17T16:33:14;12.40;30.80
1381;DHT22;684;48.342;10.096;2022-09-17T16:35:41;12.30;30.90
1381;DHT22;684;48.342;10.096;2022-09-17T16:38:09;12.30;31.30
1381;DHT22;684;48.342;10.096;2022-09-17T16:40:39;12.30;30.80
1381;DHT22;684;48.342;10.096;2022-09-17T16:43:07;12.20;30.70
1381;DHT22;684;48.342;10.096;2022-09-17T16:45:35;12.20;30.60
1381;DHT22;684;48.342;10.096;2022-09-17T16:48:03;12.10;30.80
1381;DHT22;684;48.342;10.096;2022-09-17T16:50:30;12.10;30.70
1381;DHT22;684;48.342;10.096;2022-09-17T16:52:56;12.20;30.40
1381;DHT22;684;48.342;10.096;2022-09-17T16:55:23;12.20;30.40
1381;DHT22;684;48.342;10.096;2022-09-17T16:57:50;12.10;30.40